createdAt,value
2023-04-19T00:00:14.674Z,33.82
2023-04-19T00:02:44.962Z,34.15
2023-04-19T00:05:13.983Z,34.02
2023-04-19T00:07:41.451Z,33.93
2023-04-19T00:10:09.072Z,34.35
2023-04-19T00:12:36.680Z,34.11
2023-04-19T00:15:03.938Z,34.71
2023-04-19T00:17:33.958Z,34.58
2023-04-19T00:20:01.356Z,34.48
2023-04-19T00:22:29.170Z,34.65
2023-04-19T00:24:56.322Z,35.20
2023-04-19T00:27:23.403Z,35.04
2023-04-19T00:29:50.559Z,34.70
2023-04-19T00:32:17.577Z,35.38
2023-04-19T00:34:44.700Z,35.01
2023-04-19T00:37:11.788Z,35.23
2023-04-19T00:39:39.722Z,34.99
2023-04-19T00:42:06.729Z,35.07
2023-04-19T00:44:33.897Z,35.15
2023-04-19T00:47:01.605Z,35.34
2023-04-19T00:49:30.100Z,34.88
2023-04-19T00:51:57.126Z,35.36
2023-04-19T00:54:24.819Z,35.14
2023-04-19T00:56:51.973Z,35.50
2023-04-19T00:59:19.290Z,35.24
2023-04-19T01:01:46.531Z,34.99
2023-04-19T01:04:14.217Z,34.85
2023-04-19T01:06:42.484Z,35.24
2023-04-19T01:09:11.875Z,35.54
2023-04-19T01:11:43.357Z,35.38
2023-04-19T01:14:11.046Z,34.78
2023-04-19T01:16:39.336Z,35.09
2023-04-19T01:19:06.719Z,35.29
2023-04-19T01:21:38.445Z,35.41
2023-04-19T01:24:05.928Z,34.80
2023-04-19T01:26:33.152Z,35.30
2023-04-19T01:29:03.150Z,35.27
2023-04-19T01:31:30.252Z,35.00
2023-04-19T01:33:57.412Z,34.91
2023-04-19T01:36:24.531Z,35.20
2023-04-19T01:38:51.659Z,34.73
2023-04-19T01:41:20.507Z,35.14
2023-04-19T01:43:47.763Z,34.87
2023-04-19T01:46:15.222Z,35.42
2023-04-19T01:48:42.324Z,35.05
2023-04-19T01:51:09.356Z,34.97
2023-04-19T01:53:36.562Z,35.24
2023-04-19T01:56:03.757Z,35.17
2023-04-19T01:58:30.849Z,35.82
2023-04-19T02:00:57.915Z,35.32
2023-04-19T02:03:25.285Z,35.41
2023-04-19T02:05:52.718Z,36.02
2023-04-19T02:08:22.737Z,35.57
2023-04-19T02:10:49.680Z,35.88
2023-04-19T02:13:17.995Z,36.15
2023-04-19T02:15:45.317Z,35.77
2023-04-19T02:18:32.506Z,35.50
2023-04-19T02:20:59.819Z,36.45
2023-04-19T02:23:26.945Z,36.24
2023-04-19T02:25:54.066Z,36.37
2023-04-19T02:28:21.455Z,36.97
2023-04-19T02:30:49.426Z,36.88
2023-04-19T02:33:16.505Z,36.35
2023-04-19T02:35:43.599Z,36.54
2023-04-19T02:38:11.044Z,36.26
2023-04-19T02:40:38.049Z,37.25
2023-04-19T02:43:05.144Z,36.68
2023-04-19T02:45:32.236Z,36.76
2023-04-19T02:47:59.809Z,36.91
2023-04-19T02:50:27.461Z,36.92
2023-04-19T02:52:54.509Z,36.92
2023-04-19T02:55:24.359Z,36.91
2023-04-19T02:58:00.846Z,36.92
2023-04-19T03:00:27.954Z,36.65
2023-04-19T03:03:04.874Z,37.03
2023-04-19T03:05:33.683Z,36.56
2023-04-19T03:08:00.892Z,36.43
2023-04-19T03:10:28.476Z,36.63
2023-04-19T03:12:55.664Z,36.53
2023-04-19T03:15:23.171Z,36.72
2023-04-19T03:17:50.630Z,36.11
2023-04-19T03:20:20.979Z,36.70
2023-04-19T03:22:48.383Z,36.58
2023-04-19T03:25:16.202Z,35.97
2023-04-19T03:27:48.181Z,36.15
2023-04-19T03:30:18.596Z,36.06
2023-04-19T03:32:47.406Z,35.94
2023-04-19T03:35:14.866Z,35.61
2023-04-19T03:37:43.591Z,35.98
2023-04-19T03:40:11.183Z,35.59
2023-04-19T03:42:38.168Z,36.09
2023-04-19T03:45:13.036Z,35.40
2023-04-19T03:47:46.061Z,36.06
2023-04-19T03:50:13.641Z,35.65
2023-04-19T03:53:00.615Z,35.79
2023-04-19T03:55:27.943Z,35.39
2023-04-19T03:57:55.266Z,35.44
2023-04-19T04:00:47.062Z,35.19
2023-04-19T04:03:15.679Z,35.05
2023-04-19T04:05:43.128Z,35.07
2023-04-19T04:08:10.311Z,34.59
2023-04-19T04:10:37.494Z,34.20
2023-04-19T04:13:04.769Z,33.79
2023-04-19T04:15:40.660Z,33.52
2023-04-19T04:18:11.388Z,32.38
2023-04-19T04:20:38.801Z,30.25
2023-04-19T04:23:10.906Z,28.98
2023-04-19T04:25:43.015Z,27.87
2023-04-19T04:28:13.621Z,26.86
2023-04-19T04:30:42.030Z,25.89
2023-04-19T04:33:12.198Z,25.04
2023-04-19T04:35:42.192Z,24.56
2023-04-19T04:38:24.040Z,24.11
2023-04-19T04:40:56.076Z,23.42
2023-04-19T04:43:25.876Z,22.57
2023-04-19T04:45:55.819Z,21.99
2023-04-19T04:48:31.465Z,21.91
2023-04-19T04:50:58.584Z,22.16
2023-04-19T04:53:27.761Z,22.94
2023-04-19T04:55:55.487Z,23.67
2023-04-19T04:58:23.181Z,23.23
2023-04-19T05:01:10.769Z,21.88
2023-04-19T05:03:40.713Z,20.96
2023-04-19T05:06:13.181Z,20.00
2023-04-19T05:08:40.284Z,19.47
2023-04-19T05:11:17.356Z,19.18
2023-04-19T05:13:45.008Z,18.45
2023-04-19T05:16:12.680Z,18.54
2023-04-19T05:18:42.599Z,18.02
2023-04-19T05:21:10.655Z,18.53
2023-04-19T05:23:39.596Z,18.68
2023-04-19T05:26:07.151Z,18.74
2023-04-19T05:28:34.336Z,18.82
2023-04-19T05:31:08.440Z,17.67
2023-04-19T05:33:44.107Z,17.55
2023-04-19T05:36:11.235Z,17.28
2023-04-19T05:38:38.379Z,16.79
2023-04-19T05:41:06.862Z,16.40
2023-04-19T05:43:33.896Z,16.18
2023-04-19T05:46:02.165Z,16.26
2023-04-19T05:48:29.617Z,15.40
2023-04-19T05:51:22.854Z,15.33
2023-04-19T05:54:01.501Z,15.54
2023-04-19T05:56:30.075Z,15.12
2023-04-19T05:58:57.332Z,15.45
2023-04-19T06:01:24.639Z,15.07
2023-04-19T06:03:53.832Z,14.76
2023-04-19T06:06:24.074Z,14.51
2023-04-19T06:08:53.988Z,14.64
2023-04-19T06:11:28.911Z,15.05
2023-04-19T06:14:02.572Z,15.11
2023-04-19T06:16:29.811Z,14.81
2023-04-19T06:18:57.652Z,14.50
2023-04-19T06:21:24.689Z,14.73
2023-04-19T06:23:51.801Z,14.64
2023-04-19T06:26:19.288Z,15.06
2023-04-19T06:28:46.308Z,15.48
2023-04-19T06:31:13.655Z,14.40
2023-04-19T06:33:40.780Z,14.35
2023-04-19T06:36:08.089Z,14.03
2023-04-19T06:38:35.086Z,14.12
2023-04-19T06:41:02.237Z,14.57
2023-04-19T06:43:32.008Z,13.93
2023-04-19T06:46:04.847Z,14.02
2023-04-19T06:48:32.292Z,13.90
2023-04-19T06:50:59.456Z,13.68
2023-04-19T06:53:27.631Z,13.78
2023-04-19T06:55:59.945Z,13.75
2023-04-19T06:58:27.756Z,13.57
2023-04-19T07:00:55.277Z,13.25
2023-04-19T07:03:22.714Z,13.41
2023-04-19T07:05:52.284Z,13.62
2023-04-19T07:08:19.323Z,13.70
2023-04-19T07:10:46.493Z,13.45
2023-04-19T07:13:13.782Z,14.09
2023-04-19T07:15:41.035Z,13.84
2023-04-19T07:18:10.556Z,13.85
2023-04-19T07:20:37.844Z,13.70
2023-04-19T07:23:04.916Z,13.22
2023-04-19T07:25:31.994Z,12.74
2023-04-19T07:27:59.080Z,13.15
2023-04-19T07:30:26.195Z,12.13
2023-04-19T07:32:53.842Z,11.80
2023-04-19T07:35:21.031Z,11.59
2023-04-19T07:37:48.177Z,12.24
2023-04-19T07:40:15.385Z,11.18
2023-04-19T07:42:43.346Z,11.05
2023-04-19T07:45:10.990Z,10.93
2023-04-19T07:47:38.182Z,10.87
2023-04-19T07:50:07.786Z,10.55
2023-04-19T07:52:34.960Z,10.31
2023-04-19T07:55:02.101Z,10.65
2023-04-19T07:57:31.847Z,10.90
2023-04-19T07:59:59.478Z,11.39
2023-04-19T08:02:28.069Z,11.58
2023-04-19T08:04:55.814Z,11.68
2023-04-19T08:07:23.732Z,10.91
2023-04-19T08:09:51.065Z,10.44
2023-04-19T08:12:31.006Z,10.38
2023-04-19T08:15:15.327Z,10.18
2023-04-19T08:17:51.988Z,9.97
2023-04-19T08:20:19.667Z,9.97
2023-04-19T08:22:46.760Z,10.27
2023-04-19T08:25:13.916Z,11.65
2023-04-19T08:27:41.115Z,10.00
2023-04-19T08:30:09.189Z,10.62
2023-04-19T08:32:36.464Z,10.82
2023-04-19T08:35:04.381Z,10.29
2023-04-19T08:37:31.588Z,10.23
2023-04-19T08:39:58.612Z,10.52
2023-04-19T08:42:35.821Z,10.99
2023-04-19T08:47:45.270Z,10.76
2023-04-19T08:50:32.519Z,10.84
2023-04-19T08:53:16.185Z,10.60
2023-04-19T08:56:08.836Z,11.01
2023-04-19T08:58:54.703Z,10.75
2023-04-19T09:04:02.672Z,11.03
2023-04-19T09:06:38.172Z,11.16
2023-04-19T09:09:28.775Z,10.88
2023-04-19T09:12:01.635Z,11.65
2023-04-19T09:14:30.283Z,11.61
2023-04-19T09:17:16.809Z,12.04
2023-04-19T09:19:48.397Z,12.19
2023-04-19T09:22:15.824Z,12.80
2023-04-19T09:27:15.218Z,13.04
2023-04-19T09:29:42.520Z,13.28
2023-04-19T09:32:09.665Z,13.35
2023-04-19T09:34:54.552Z,14.28
2023-04-19T09:37:39.163Z,14.50
2023-04-19T09:40:25.313Z,14.59
2023-04-19T09:48:09.943Z,15.43
2023-04-19T09:50:58.507Z,15.90
2023-04-19T09:53:34.495Z,16.18
2023-04-19T09:56:03.379Z,16.95
2023-04-19T09:58:42.653Z,16.70
2023-04-19T10:01:19.102Z,16.63
2023-04-19T10:03:49.770Z,16.79
2023-04-19T10:08:51.023Z,17.49
2023-04-19T10:11:21.982Z,17.66
2023-04-19T10:13:50.239Z,17.74
2023-04-19T10:16:19.914Z,18.44
2023-04-19T10:18:50.708Z,18.41
2023-04-19T10:21:20.186Z,18.54
2023-04-19T10:23:48.242Z,18.28
2023-04-19T10:26:15.409Z,18.02
2023-04-19T10:28:42.839Z,18.32
2023-04-19T10:31:16.212Z,18.10
2023-04-19T10:33:43.588Z,18.74
2023-04-19T10:36:14.830Z,18.54
2023-04-19T10:38:44.752Z,19.59
2023-04-19T10:41:15.464Z,19.45
2023-04-19T10:43:48.108Z,19.52
2023-04-19T10:46:21.094Z,19.52
2023-04-19T10:48:54.964Z,19.41
2023-04-19T10:51:28.076Z,19.30
2023-04-19T10:54:00.571Z,19.49
2023-04-19T10:56:33.975Z,19.31
2023-04-19T10:59:01.603Z,19.87
2023-04-19T11:01:37.485Z,19.93
2023-04-19T11:04:05.110Z,19.89
2023-04-19T11:06:33.921Z,20.63
2023-04-19T11:09:02.954Z,20.46
2023-04-19T11:11:33.896Z,20.29
2023-04-19T11:14:03.211Z,20.64
2023-04-19T11:16:42.361Z,21.08
2023-04-19T11:19:20.389Z,20.97
2023-04-19T11:21:48.138Z,21.06
2023-04-19T11:24:19.200Z,21.52
2023-04-19T11:26:46.808Z,21.18
2023-04-19T11:29:14.697Z,21.23
2023-04-19T11:31:46.517Z,20.89
2023-04-19T11:34:14.006Z,21.07
2023-04-19T11:36:48.859Z,21.49
2023-04-19T11:39:16.490Z,21.28
2023-04-19T11:41:43.594Z,21.19
2023-04-19T11:44:20.561Z,21.54
2023-04-19T11:47:05.177Z,21.53
2023-04-19T11:49:33.806Z,21.40
2023-04-19T11:52:05.307Z,21.65
2023-04-19T11:54:33.963Z,21.39
2023-04-19T11:57:06.255Z,21.74
2023-04-19T11:59:37.597Z,21.28
2023-04-19T12:02:09.441Z,21.78
2023-04-19T12:04:37.471Z,21.66
2023-04-19T12:07:06.073Z,21.51
2023-04-19T12:09:37.106Z,21.54
2023-04-19T12:12:04.460Z,21.74
2023-04-19T12:14:31.768Z,21.76
2023-04-19T12:17:14.627Z,21.63
2023-04-19T12:19:48.002Z,21.71
2023-04-19T12:22:24.430Z,21.94
2023-04-19T12:24:53.542Z,21.91
2023-04-19T12:27:20.688Z,22.30
2023-04-19T12:29:47.766Z,21.81
2023-04-19T12:32:16.239Z,21.62
2023-04-19T12:34:43.510Z,21.81
2023-04-19T12:37:10.914Z,21.53
2023-04-19T12:39:38.082Z,21.72
2023-04-19T12:42:06.340Z,21.45
2023-04-19T12:44:33.459Z,21.57
2023-04-19T12:47:00.567Z,21.12
2023-04-19T12:49:27.917Z,21.12
2023-04-19T12:51:57.242Z,21.46
2023-04-19T12:54:24.756Z,21.75
2023-04-19T12:56:52.383Z,22.03
2023-04-19T12:59:19.717Z,22.22
2023-04-19T13:01:46.938Z,21.35
2023-04-19T13:04:14.329Z,21.40
2023-04-19T13:06:42.207Z,21.80
2023-04-19T13:11:39.380Z,21.16
2023-04-19T13:14:06.447Z,21.34
2023-04-19T13:16:33.545Z,21.31
2023-04-19T13:19:00.739Z,21.79
2023-04-19T13:21:28.085Z,21.54
2023-04-19T13:23:55.222Z,21.10
2023-04-19T13:26:22.430Z,21.46
2023-04-19T13:28:49.814Z,21.52
2023-04-19T13:31:17.050Z,21.26
2023-04-19T13:33:44.307Z,21.34
2023-04-19T13:36:11.378Z,21.25
2023-04-19T13:38:38.628Z,21.46
2023-04-19T13:41:06.021Z,21.44
2023-04-19T13:43:33.080Z,21.47
2023-04-19T13:46:00.269Z,21.30
2023-04-19T13:48:30.364Z,21.53
2023-04-19T13:50:58.371Z,21.87
2023-04-19T13:53:27.232Z,21.45
2023-04-19T13:55:54.513Z,21.19
2023-04-19T13:58:21.649Z,21.03
2023-04-19T14:00:48.783Z,21.10
2023-04-19T14:03:16.175Z,21.19
2023-04-19T14:05:43.664Z,21.14
2023-04-19T14:08:10.814Z,21.17
2023-04-19T14:10:38.210Z,21.17
2023-04-19T14:13:05.616Z,21.44
2023-04-19T14:15:32.699Z,21.28
2023-04-19T14:18:00.585Z,21.29
2023-04-19T14:20:27.802Z,21.20
2023-04-19T14:22:56.258Z,21.25
2023-04-19T14:25:23.405Z,21.47
2023-04-19T14:27:50.476Z,21.42
2023-04-19T14:30:18.028Z,21.33
2023-04-19T14:32:45.372Z,21.30
2023-04-19T14:35:12.696Z,21.24
2023-04-19T14:37:39.939Z,21.22
2023-04-19T14:40:07.793Z,21.24
2023-04-19T14:42:34.939Z,21.35
2023-04-19T14:45:02.286Z,21.24
2023-04-19T14:47:31.460Z,21.05
2023-04-19T14:49:58.542Z,21.38
2023-04-19T14:52:26.065Z,21.36
2023-04-19T14:54:53.288Z,21.31
2023-04-19T14:57:23.018Z,21.31
2023-04-19T14:59:50.520Z,21.39
2023-04-19T15:02:17.828Z,21.47
2023-04-19T15:04:45.166Z,21.44
2023-04-19T15:07:12.317Z,21.21
2023-04-19T15:09:40.440Z,21.55
2023-04-19T15:12:07.769Z,21.53
2023-04-19T15:14:35.088Z,21.58
2023-04-19T15:17:03.898Z,21.73
2023-04-19T15:19:31.307Z,21.67
2023-04-19T15:21:58.620Z,21.46
2023-04-19T15:24:25.913Z,21.60
2023-04-19T15:26:56.796Z,21.81
2023-04-19T15:29:23.959Z,21.82
2023-04-19T15:31:51.157Z,22.05
2023-04-19T15:34:18.366Z,22.03
2023-04-19T15:36:46.054Z,22.03
2023-04-19T15:39:13.245Z,22.31
2023-04-19T15:41:40.286Z,22.13
2023-04-19T15:44:07.339Z,22.19
2023-04-19T15:46:34.614Z,22.31
2023-04-19T15:49:01.941Z,22.43
2023-04-19T15:51:28.971Z,22.64
2023-04-19T15:53:56.135Z,22.69
2023-04-19T15:56:23.343Z,22.88
2023-04-19T15:58:50.424Z,22.78
2023-04-19T16:01:19.096Z,22.94
2023-04-19T16:03:46.738Z,22.87
2023-04-19T16:06:14.008Z,22.83
2023-04-19T16:08:41.082Z,22.93
2023-04-19T16:11:08.255Z,22.83
2023-04-19T16:13:35.603Z,22.97
2023-04-19T16:16:02.790Z,22.78
2023-04-19T16:18:29.941Z,22.81
2023-04-19T16:20:56.954Z,22.96
2023-04-19T16:23:35.090Z,23.73
2023-04-19T16:26:54.973Z,23.55
2023-04-19T16:30:23.437Z,23.14
2023-04-19T16:33:24.489Z,23.38
2023-04-19T16:36:03.580Z,22.95
2023-04-19T16:39:10.443Z,23.01
2023-04-19T16:41:53.461Z,23.29
2023-04-19T16:44:32.407Z,23.30
2023-04-19T16:47:02.731Z,23.24
2023-04-19T16:49:29.823Z,23.24
2023-04-19T16:51:57.172Z,23.13
2023-04-19T16:54:24.240Z,23.41
2023-04-19T16:56:51.227Z,23.26
2023-04-19T16:59:18.578Z,23.35
2023-04-19T17:01:45.820Z,23.31
2023-04-19T17:04:13.183Z,23.18
2023-04-19T17:06:40.486Z,23.23
2023-04-19T17:09:07.895Z,23.50
2023-04-19T17:11:34.957Z,23.35
2023-04-19T17:14:01.989Z,23.34
2023-04-19T17:16:29.153Z,23.28
2023-04-19T17:18:56.369Z,23.13
2023-04-19T17:21:23.421Z,23.07
2023-04-19T17:23:50.652Z,23.38
2023-04-19T17:26:17.659Z,23.27
2023-04-19T17:28:44.740Z,23.33
2023-04-19T17:31:11.949Z,23.38
2023-04-19T17:33:39.058Z,23.64
2023-04-19T17:36:07.258Z,23.62
2023-04-19T17:38:34.322Z,23.64
2023-04-19T17:41:02.903Z,23.55
2023-04-19T17:43:29.989Z,23.45
2023-04-19T17:45:58.129Z,23.61
2023-04-19T17:48:25.545Z,23.69
2023-04-19T17:50:52.559Z,23.95
2023-04-19T17:53:19.732Z,23.72
2023-04-19T17:55:46.909Z,23.76
2023-04-19T17:58:13.952Z,23.64
2023-04-19T18:00:41.117Z,24.08
2023-04-19T18:03:11.087Z,24.33
2023-04-19T18:05:42.272Z,23.84
2023-04-19T18:08:10.117Z,24.23
2023-04-19T18:10:37.223Z,23.89
2023-04-19T18:13:04.453Z,23.99
2023-04-19T18:15:31.469Z,24.83
2023-04-19T18:17:58.530Z,23.80
2023-04-19T18:20:26.304Z,24.13
2023-04-19T18:22:53.630Z,24.35
2023-04-19T18:25:20.832Z,24.21
2023-04-19T18:27:50.501Z,24.41
2023-04-19T18:30:17.582Z,24.48
2023-04-19T18:32:44.664Z,26.11
2023-04-19T18:35:11.740Z,24.29
2023-04-19T18:37:39.376Z,24.15
2023-04-19T18:40:07.420Z,24.32
2023-04-19T18:42:34.645Z,24.22
2023-04-19T18:45:04.077Z,24.83
2023-04-19T18:47:32.662Z,24.06
2023-04-19T18:50:05.277Z,24.13
2023-04-19T18:52:36.478Z,24.00
2023-04-19T18:55:07.746Z,24.32
2023-04-19T18:57:35.441Z,23.92
2023-04-19T19:00:06.293Z,23.37
2023-04-19T19:02:36.413Z,23.81
2023-04-19T19:05:07.446Z,23.66
2023-04-19T19:07:37.240Z,23.43
2023-04-19T19:12:41.068Z,24.10
2023-04-19T19:15:08.669Z,23.88
2023-04-19T19:17:35.916Z,23.91
2023-04-19T19:20:04.855Z,23.75
2023-04-19T19:22:32.079Z,23.89
2023-04-19T19:24:59.787Z,24.16
2023-04-19T19:27:26.996Z,23.99
2023-04-19T19:29:56.655Z,23.62
2023-04-19T19:32:23.842Z,23.78
2023-04-19T19:34:56.663Z,23.83
2023-04-19T19:37:31.141Z,23.85
2023-04-19T19:40:04.242Z,23.90
2023-04-19T19:42:33.524Z,24.32
2023-04-19T19:45:00.976Z,24.15
2023-04-19T19:47:30.784Z,24.17
2023-04-19T19:50:46.143Z,23.87
2023-04-19T19:52:52.257Z,24.01
2023-04-19T19:55:19.369Z,23.68
2023-04-19T20:00:39.654Z,23.94
2023-04-19T20:03:06.624Z,24.26
2023-04-19T20:05:34.330Z,24.24
2023-04-19T20:08:10.383Z,24.16
2023-04-19T20:10:39.021Z,24.20
2023-04-19T20:13:06.873Z,24.55
2023-04-19T20:15:38.034Z,24.44
2023-04-19T20:18:05.557Z,24.75
2023-04-19T20:20:32.874Z,24.56
2023-04-19T20:23:00.015Z,24.69
2023-04-19T20:25:27.269Z,24.73
2023-04-19T20:27:55.203Z,24.95
2023-04-19T20:30:22.443Z,24.55
2023-04-19T20:32:50.505Z,24.67
2023-04-19T20:35:18.212Z,24.75
2023-04-19T20:37:47.172Z,24.72
2023-04-19T20:40:16.300Z,25.07
2023-04-19T20:42:45.020Z,25.15
2023-04-19T20:45:14.503Z,25.35
2023-04-19T20:47:42.945Z,25.18
2023-04-19T20:50:10.676Z,26.04
2023-04-19T20:52:37.775Z,25.87
2023-04-19T20:55:05.294Z,25.98
2023-04-19T20:57:32.444Z,25.96
2023-04-19T21:00:00.131Z,25.99
2023-04-19T21:02:28.069Z,25.60
2023-04-19T21:04:55.188Z,26.02
2023-04-19T21:07:22.223Z,26.40
2023-04-19T21:09:49.232Z,26.03
2023-04-19T21:12:17.994Z,26.32
2023-04-19T21:14:47.769Z,25.97
2023-04-19T21:17:16.355Z,25.93
2023-04-19T21:19:43.405Z,26.24
2023-04-19T21:22:10.620Z,26.84
2023-04-19T21:24:37.641Z,26.90
2023-04-19T21:27:05.294Z,26.52
2023-04-19T21:29:32.901Z,27.09
2023-04-19T21:32:00.092Z,26.58
2023-04-19T21:34:27.418Z,26.77
2023-04-19T21:36:54.626Z,27.07
2023-04-19T21:39:21.691Z,26.74
2023-04-19T21:41:48.710Z,26.73
2023-04-19T21:44:15.850Z,26.98
2023-04-19T21:46:42.901Z,27.41
2023-04-19T21:49:09.917Z,27.62
2023-04-19T21:51:36.996Z,27.99
2023-04-19T21:54:04.126Z,27.87
2023-04-19T21:56:49.885Z,27.51
2023-04-19T21:59:17.033Z,28.20
2023-04-19T22:01:44.373Z,28.11
2023-04-19T22:04:12.315Z,27.82
2023-04-19T22:06:39.497Z,28.62
2023-04-19T22:09:06.983Z,28.52
2023-04-19T22:11:37.124Z,28.36
2023-04-19T22:14:04.205Z,28.19
2023-04-19T22:16:32.935Z,28.51
2023-04-19T22:19:00.091Z,28.01
2023-04-19T22:21:27.210Z,28.23
2023-04-19T22:23:54.397Z,27.98
2023-04-19T22:26:22.410Z,28.08
2023-04-19T22:28:49.425Z,28.37
2023-04-19T22:31:16.530Z,28.29
2023-04-19T22:33:43.642Z,28.61
2023-04-19T22:36:10.932Z,28.61
2023-04-19T22:38:38.055Z,28.87
2023-04-19T22:41:05.341Z,28.49
2023-04-19T22:43:33.255Z,28.52
2023-04-19T22:46:01.357Z,28.50
2023-04-19T22:48:30.248Z,28.33
2023-04-19T22:50:57.357Z,28.68
2023-04-19T22:53:24.512Z,28.85
2023-04-19T22:55:51.625Z,28.15
2023-04-19T22:58:19.921Z,28.68
2023-04-19T23:00:46.966Z,28.85
2023-04-19T23:03:14.007Z,28.93
2023-04-19T23:05:41.915Z,29.84
2023-04-19T23:08:09.557Z,30.06
2023-04-19T23:10:39.363Z,29.87
2023-04-19T23:13:06.966Z,29.24
2023-04-19T23:15:34.621Z,29.20
2023-04-19T23:18:03.869Z,29.80
2023-04-19T23:20:31.764Z,29.05
2023-04-19T23:22:59.492Z,30.07
2023-04-19T23:25:26.609Z,30.13
2023-04-19T23:27:53.580Z,30.15
2023-04-19T23:30:20.859Z,30.48
2023-04-19T23:32:47.915Z,30.24
2023-04-19T23:35:15.184Z,29.60
2023-04-19T23:37:42.287Z,30.41
2023-04-19T23:40:10.440Z,30.48
2023-04-19T23:42:38.587Z,30.48
2023-04-19T23:45:06.895Z,29.69
2023-04-19T23:47:34.287Z,29.84
2023-04-19T23:50:01.416Z,29.35
2023-04-19T23:52:30.678Z,29.75
2023-04-19T23:54:57.818Z,30.29
2023-04-19T23:57:25.036Z,29.77
2023-04-19T23:59:52.127Z,29.85
